createdAt,value
2022-08-27T00:00:09.741Z,83.53
2022-08-27T00:01:11.944Z,83.63
2022-08-27T00:02:09.825Z,83.67
2022-08-27T00:03:09.699Z,83.77
2022-08-27T00:04:09.731Z,83.87
2022-08-27T00:05:09.685Z,83.87
2022-08-27T00:06:09.706Z,83.87
2022-08-27T00:07:09.671Z,83.87
2022-08-27T00:08:09.866Z,83.97
2022-08-27T00:09:09.619Z,84.07
2022-08-27T00:10:09.734Z,84.07
2022-08-27T00:11:09.658Z,84.17
2022-08-27T00:12:09.621Z,84.17
2022-08-27T00:13:09.549Z,84.17
2022-08-27T00:14:09.725Z,84.27
2022-08-27T00:15:09.562Z,84.27
2022-08-27T00:16:09.678Z,84.27
2022-08-27T00:17:09.550Z,84.37
2022-08-27T00:18:09.694Z,84.47
2022-08-27T00:19:09.550Z,84.61
2022-08-27T00:20:09.701Z,84.61
2022-08-27T00:21:09.479Z,84.61
2022-08-27T00:22:11.151Z,84.71
2022-08-27T00:23:09.477Z,84.71
2022-08-27T00:24:09.472Z,84.71
2022-08-27T00:25:09.424Z,84.71
2022-08-27T00:26:09.485Z,84.71
2022-08-27T00:27:09.409Z,84.71
2022-08-27T00:28:09.537Z,84.61
2022-08-27T00:29:09.402Z,84.71
2022-08-27T00:30:09.397Z,84.61
2022-08-27T00:31:12.163Z,84.61
2022-08-27T00:32:09.528Z,84.61
2022-08-27T00:33:09.367Z,84.71
2022-08-27T00:34:09.316Z,84.51
2022-08-27T00:35:09.327Z,84.47
2022-08-27T00:36:09.314Z,84.47
2022-08-27T00:37:09.364Z,84.47
2022-08-27T00:38:09.506Z,84.37
2022-08-27T00:39:09.289Z,84.37
2022-08-27T00:40:09.295Z,84.37
2022-08-27T00:41:09.230Z,84.37
2022-08-27T00:42:09.290Z,84.27
2022-08-27T00:43:09.229Z,84.27
2022-08-27T00:44:09.266Z,84.27
2022-08-27T00:45:09.208Z,84.17
2022-08-27T00:46:09.198Z,84.17
2022-08-27T00:47:10.191Z,84.17
2022-08-27T00:48:09.370Z,84.31
2022-08-27T00:49:09.163Z,84.51
2022-08-27T00:50:09.163Z,84.51
2022-08-27T00:51:09.140Z,84.61
2022-08-27T00:52:09.128Z,84.61
2022-08-27T00:53:09.121Z,84.61
2022-08-27T00:54:09.152Z,84.61
2022-08-27T00:55:09.103Z,84.71
2022-08-27T00:56:09.060Z,84.71
2022-08-27T00:57:09.084Z,84.71
2022-08-27T00:58:09.250Z,84.71
2022-08-27T00:59:09.056Z,84.71
2022-08-27T01:00:09.070Z,84.71
2022-08-27T01:01:09.052Z,84.71
2022-08-27T01:02:09.150Z,84.71
2022-08-27T01:03:09.049Z,84.81
2022-08-27T01:04:08.977Z,84.91
2022-08-27T01:05:08.996Z,84.91
2022-08-27T01:06:08.988Z,84.91
2022-08-27T01:07:09.297Z,85.01
2022-08-27T01:08:09.152Z,85.01
2022-08-27T01:09:08.928Z,85.01
2022-08-27T01:10:08.954Z,85.11
2022-08-27T01:11:08.938Z,85.11
2022-08-27T01:12:08.939Z,85.21
2022-08-27T01:13:08.938Z,85.21
2022-08-27T01:14:08.897Z,85.21
2022-08-27T01:15:10.043Z,85.21
2022-08-27T01:16:08.955Z,85.21
2022-08-27T01:17:08.970Z,85.11
2022-08-27T01:18:08.942Z,85.11
2022-08-27T01:19:08.801Z,85.11
2022-08-27T01:20:08.844Z,85.11
2022-08-27T01:21:08.794Z,85.11
2022-08-27T01:22:08.773Z,85.11
2022-08-27T01:23:08.816Z,85.11
2022-08-27T01:24:08.748Z,85.11
2022-08-27T01:25:08.742Z,85.01
2022-08-27T01:26:08.727Z,85.01
2022-08-27T01:27:13.588Z,84.91
2022-08-27T01:28:09.892Z,84.81
2022-08-27T01:29:08.699Z,84.81
2022-08-27T01:30:08.690Z,84.81
2022-08-27T01:31:08.736Z,84.61
2022-08-27T01:32:08.651Z,84.47
2022-08-27T01:33:08.640Z,84.27
2022-08-27T01:34:08.678Z,84.17
2022-08-27T01:35:08.681Z,84.07
2022-08-27T01:36:08.662Z,83.87
2022-08-27T01:37:08.624Z,83.87
2022-08-27T01:38:09.483Z,83.77
2022-08-27T01:39:09.623Z,83.77
2022-08-27T01:40:08.650Z,83.67
2022-08-27T01:41:08.553Z,83.57
2022-08-27T01:42:08.537Z,83.57
2022-08-27T01:43:08.552Z,83.47
2022-08-27T01:44:08.549Z,83.47
2022-08-27T01:45:08.602Z,83.47
2022-08-27T01:46:08.514Z,83.37
2022-08-27T01:47:08.491Z,83.47
2022-08-27T01:48:08.549Z,83.37
2022-08-27T01:49:08.497Z,83.47
2022-08-27T01:50:08.498Z,83.47
2022-08-27T01:51:08.495Z,83.47
2022-08-27T01:52:08.513Z,83.47
2022-08-27T01:53:08.427Z,83.47
2022-08-27T01:54:08.412Z,83.47
2022-08-27T01:55:08.576Z,83.47
2022-08-27T01:56:08.473Z,83.43
2022-08-27T01:57:08.436Z,83.47
2022-08-27T01:58:08.381Z,83.47
2022-08-27T01:59:09.433Z,83.47
2022-08-27T02:00:08.390Z,83.43
2022-08-27T02:01:08.393Z,83.43
2022-08-27T02:02:08.390Z,83.47
2022-08-27T02:03:08.344Z,83.43
2022-08-27T02:04:08.297Z,83.47
2022-08-27T02:05:08.316Z,83.43
2022-08-27T02:06:08.300Z,83.43
2022-08-27T02:07:08.269Z,83.43
2022-08-27T02:08:08.259Z,83.43
2022-08-27T02:09:09.469Z,83.33
2022-08-27T02:10:08.237Z,83.43
2022-08-27T02:11:08.249Z,83.47
2022-08-27T02:12:09.050Z,83.47
2022-08-27T02:13:08.218Z,83.47
2022-08-27T02:14:13.355Z,83.33
2022-08-27T02:15:09.182Z,83.33
2022-08-27T02:16:08.248Z,83.37
2022-08-27T02:17:08.143Z,83.37
2022-08-27T02:18:08.153Z,83.37
2022-08-27T02:19:09.821Z,83.37
2022-08-27T02:20:08.150Z,83.37
2022-08-27T02:21:08.132Z,83.37
2022-08-27T02:22:08.133Z,83.37
2022-08-27T02:23:08.089Z,83.37
2022-08-27T02:24:08.083Z,83.37
2022-08-27T02:25:10.180Z,83.47
2022-08-27T02:26:08.141Z,83.47
2022-08-27T02:27:08.038Z,83.37
2022-08-27T02:28:08.051Z,83.47
2022-08-27T02:29:08.096Z,83.47
2022-08-27T02:30:08.018Z,83.47
2022-08-27T02:31:08.064Z,83.47
2022-08-27T02:32:08.027Z,83.47
2022-08-27T02:33:08.966Z,83.47
2022-08-27T02:34:08.036Z,83.57
2022-08-27T02:35:07.944Z,83.57
2022-08-27T02:36:08.033Z,83.47
2022-08-27T02:37:07.938Z,83.47
2022-08-27T02:38:08.273Z,83.57
2022-08-27T02:39:07.911Z,83.47
2022-08-27T02:40:07.985Z,83.47
2022-08-27T02:41:07.893Z,83.47
2022-08-27T02:42:07.917Z,83.47
2022-08-27T02:43:07.911Z,83.57
2022-08-27T02:44:07.874Z,83.57
2022-08-27T02:45:07.882Z,83.57
2022-08-27T02:46:07.940Z,83.67
2022-08-27T02:47:07.832Z,83.57
2022-08-27T02:48:07.892Z,83.77
2022-08-27T02:49:08.805Z,83.77
2022-08-27T02:50:07.835Z,83.77
2022-08-27T02:51:07.795Z,83.77
2022-08-27T02:52:07.828Z,83.77
2022-08-27T02:53:07.838Z,83.77
2022-08-27T02:54:09.476Z,83.77
2022-08-27T02:55:07.763Z,83.77
2022-08-27T02:56:07.950Z,83.87
2022-08-27T02:57:07.740Z,83.91
2022-08-27T02:58:07.750Z,84.01
2022-08-27T02:59:07.692Z,84.01
2022-08-27T03:00:07.729Z,84.01
2022-08-27T03:01:11.270Z,84.01
2022-08-27T03:02:08.790Z,84.01
2022-08-27T03:03:07.681Z,84.01
2022-08-27T03:04:07.625Z,84.01
2022-08-27T03:05:07.604Z,84.01
2022-08-27T03:06:07.595Z,84.01
2022-08-27T03:07:07.618Z,83.91
2022-08-27T03:08:08.604Z,83.87
2022-08-27T03:09:07.580Z,83.91
2022-08-27T03:10:07.627Z,84.01
2022-08-27T03:11:07.547Z,83.87
2022-08-27T03:12:07.538Z,84.01
2022-08-27T03:13:07.563Z,84.01
2022-08-27T03:14:07.507Z,84.11
2022-08-27T03:15:07.530Z,84.11
2022-08-27T03:16:08.508Z,84.21
2022-08-27T03:17:07.544Z,84.11
2022-08-27T03:18:07.530Z,84.21
2022-08-27T03:19:07.589Z,84.31
2022-08-27T03:20:07.499Z,84.41
2022-08-27T03:21:07.466Z,84.41
2022-08-27T03:22:07.504Z,84.51
2022-08-27T03:23:08.260Z,84.51
2022-08-27T03:24:09.549Z,84.51
2022-08-27T03:25:07.439Z,84.51
2022-08-27T03:26:07.390Z,84.51
2022-08-27T03:27:07.392Z,84.51
2022-08-27T03:28:20.631Z,84.51
2022-08-27T03:29:09.540Z,84.51
2022-08-27T03:30:07.332Z,84.51
2022-08-27T03:31:07.408Z,84.61
2022-08-27T03:32:07.360Z,84.61
2022-08-27T03:33:07.346Z,84.71
2022-08-27T03:34:07.322Z,84.71
2022-08-27T03:35:07.347Z,84.71
2022-08-27T03:36:07.297Z,84.81
2022-08-27T03:37:07.246Z,84.91
2022-08-27T03:38:07.369Z,85.05
2022-08-27T03:39:07.231Z,85.15
2022-08-27T03:40:07.355Z,85.15
2022-08-27T03:41:07.279Z,85.15
2022-08-27T03:42:07.221Z,85.15
2022-08-27T03:43:08.164Z,85.11
2022-08-27T03:44:07.196Z,85.01
2022-08-27T03:45:07.205Z,85.05
2022-08-27T03:46:07.170Z,85.05
2022-08-27T03:47:07.190Z,85.15
2022-08-27T03:48:07.237Z,85.15
2022-08-27T03:49:07.153Z,85.25
2022-08-27T03:50:07.114Z,85.15
2022-08-27T03:51:07.134Z,85.25
2022-08-27T03:52:07.120Z,85.25
2022-08-27T03:53:07.111Z,85.25
2022-08-27T03:54:07.116Z,85.35
2022-08-27T03:55:07.092Z,85.25
2022-08-27T03:56:07.047Z,85.35
2022-08-27T03:57:07.089Z,85.35
2022-08-27T03:58:07.123Z,85.35
2022-08-27T03:59:07.081Z,85.35
2022-08-27T04:00:07.038Z,85.46
2022-08-27T04:01:07.038Z,85.46
2022-08-27T04:02:07.023Z,85.46
2022-08-27T04:03:07.002Z,85.35
2022-08-27T04:04:07.055Z,85.35
2022-08-27T04:05:07.008Z,85.35
2022-08-27T04:06:06.943Z,85.46
2022-08-27T04:07:06.959Z,85.46
2022-08-27T04:08:06.966Z,85.46
2022-08-27T04:09:06.894Z,85.46
2022-08-27T04:10:06.916Z,85.35
2022-08-27T04:11:06.875Z,85.46
2022-08-27T04:12:06.865Z,85.46
2022-08-27T04:13:06.864Z,85.46
2022-08-27T04:14:06.920Z,85.55
2022-08-27T04:15:08.120Z,85.55
2022-08-27T04:16:06.882Z,85.55
2022-08-27T04:17:06.803Z,85.55
2022-08-27T04:18:06.787Z,85.46
2022-08-27T04:19:06.773Z,85.55
2022-08-27T04:20:31.617Z,85.46
2022-08-27T04:21:07.774Z,85.46
2022-08-27T04:22:06.745Z,85.35
2022-08-27T04:23:06.724Z,85.35
2022-08-27T04:24:06.722Z,85.25
2022-08-27T04:25:10.523Z,85.25
2022-08-27T04:26:07.707Z,85.25
2022-08-27T04:27:06.708Z,85.25
2022-08-27T04:28:06.717Z,85.25
2022-08-27T04:29:06.678Z,85.30
2022-08-27T04:30:06.661Z,85.15
2022-08-27T04:31:07.331Z,85.10
2022-08-27T04:32:07.656Z,85.19
2022-08-27T04:33:06.629Z,85.10
2022-08-27T04:34:06.607Z,85.10
2022-08-27T04:35:06.594Z,85.19
2022-08-27T04:36:06.602Z,85.19
2022-08-27T04:37:06.577Z,85.19
2022-08-27T04:38:06.608Z,85.19
2022-08-27T04:39:06.596Z,85.19
2022-08-27T04:40:06.765Z,85.10
2022-08-27T04:41:06.581Z,85.19
2022-08-27T04:42:06.499Z,85.19
2022-08-27T04:43:06.488Z,85.10
2022-08-27T04:44:06.539Z,85.10
2022-08-27T04:45:06.479Z,85.10
2022-08-27T04:46:06.501Z,85.10
2022-08-27T04:47:06.578Z,85.10
2022-08-27T04:48:06.524Z,85.19
2022-08-27T04:49:08.991Z,85.19
2022-08-27T04:50:06.454Z,85.19
2022-08-27T04:51:06.422Z,85.19
2022-08-27T04:52:06.416Z,85.19
2022-08-27T04:53:06.374Z,85.19
2022-08-27T04:54:06.364Z,85.30
2022-08-27T04:55:06.449Z,85.30
2022-08-27T04:56:06.380Z,85.39
2022-08-27T04:57:07.349Z,85.39
2022-08-27T04:58:06.323Z,85.39
2022-08-27T04:59:06.322Z,85.39
2022-08-27T05:00:06.323Z,85.49
2022-08-27T05:01:06.332Z,85.49
2022-08-27T05:02:06.340Z,85.49
2022-08-27T05:03:06.284Z,85.49
2022-08-27T05:04:06.304Z,85.49
2022-08-27T05:05:06.375Z,85.49
2022-08-27T05:06:06.226Z,85.49
2022-08-27T05:07:06.237Z,85.49
2022-08-27T05:08:06.946Z,85.49
2022-08-27T05:09:06.195Z,85.60
2022-08-27T05:10:06.185Z,85.69
2022-08-27T05:11:06.170Z,85.80
2022-08-27T05:12:06.176Z,85.89
2022-08-27T05:13:06.182Z,85.89
2022-08-27T05:14:06.200Z,85.99
2022-08-27T05:15:06.147Z,85.99
2022-08-27T05:16:06.165Z,85.99
2022-08-27T05:17:06.137Z,85.99
2022-08-27T05:18:06.118Z,85.99
2022-08-27T05:19:06.119Z,86.10
2022-08-27T05:20:06.171Z,85.99
2022-08-27T05:21:06.120Z,85.99
2022-08-27T05:22:06.074Z,85.89
2022-08-27T05:23:06.067Z,85.89
2022-08-27T05:24:06.012Z,85.89
2022-08-27T05:25:06.055Z,85.89
2022-08-27T05:26:06.011Z,85.89
2022-08-27T05:27:06.965Z,85.80
2022-08-27T05:28:06.002Z,85.89
2022-08-27T05:29:06.023Z,85.99
2022-08-27T05:30:05.952Z,85.89
2022-08-27T05:31:06.073Z,85.80
2022-08-27T05:32:05.940Z,85.80
2022-08-27T05:33:05.912Z,85.80
2022-08-27T05:34:08.477Z,85.80
2022-08-27T05:35:05.904Z,85.80
2022-08-27T05:36:05.908Z,85.80
2022-08-27T05:37:05.875Z,85.69
2022-08-27T05:38:05.875Z,85.60
2022-08-27T05:39:05.862Z,85.60
2022-08-27T05:40:05.929Z,85.49
2022-08-27T05:41:05.860Z,85.49
2022-08-27T05:42:05.814Z,85.49
2022-08-27T05:43:05.895Z,85.49
2022-08-27T05:44:24.085Z,85.39
2022-08-27T05:45:06.826Z,85.30
2022-08-27T05:46:05.898Z,85.19
2022-08-27T05:47:05.808Z,85.15
2022-08-27T05:48:05.842Z,85.15
2022-08-27T05:49:05.756Z,85.19
2022-08-27T05:50:05.846Z,85.25
2022-08-27T05:51:05.746Z,85.05
2022-08-27T05:52:05.737Z,84.85
2022-08-27T05:53:05.757Z,84.85
2022-08-27T05:54:08.466Z,84.75
2022-08-27T05:55:06.398Z,84.65
2022-08-27T05:56:05.668Z,84.75
2022-08-27T05:57:05.668Z,84.75
2022-08-27T05:58:06.620Z,84.55
2022-08-27T05:59:05.618Z,84.55
2022-08-27T06:00:05.628Z,84.45
2022-08-27T06:01:09.537Z,84.45
2022-08-27T06:02:05.594Z,84.45
2022-08-27T06:03:05.600Z,84.55
2022-08-27T06:04:05.715Z,84.35
2022-08-27T06:05:05.663Z,84.21
2022-08-27T06:06:05.604Z,84.01
2022-08-27T06:07:05.570Z,83.91
2022-08-27T06:08:05.582Z,83.71
2022-08-27T06:09:05.511Z,83.81
2022-08-27T06:10:05.584Z,83.71
2022-08-27T06:11:05.511Z,83.61
2022-08-27T06:12:05.504Z,83.81
2022-08-27T06:13:05.490Z,83.81
2022-08-27T06:14:05.467Z,83.81
2022-08-27T06:15:05.432Z,83.61
2022-08-27T06:16:06.646Z,83.37
2022-08-27T06:17:05.442Z,83.21
2022-08-27T06:18:05.397Z,82.97
2022-08-27T06:19:05.393Z,82.97
2022-08-27T06:20:05.444Z,83.31
2022-08-27T06:21:05.399Z,83.31
2022-08-27T06:22:10.041Z,83.21
2022-08-27T06:23:06.355Z,83.21
2022-08-27T06:24:05.359Z,83.07
2022-08-27T06:25:05.326Z,83.07
2022-08-27T06:26:05.306Z,82.67
2022-08-27T06:27:05.345Z,82.87
2022-08-27T06:28:06.662Z,82.87
2022-08-27T06:29:05.278Z,82.77
2022-08-27T06:30:05.266Z,82.77
2022-08-27T06:31:05.328Z,82.77
2022-08-27T06:32:05.269Z,82.87
2022-08-27T06:33:05.295Z,82.87
2022-08-27T06:34:07.490Z,82.81
2022-08-27T06:35:05.207Z,82.91
2022-08-27T06:36:05.197Z,82.91
2022-08-27T06:37:05.200Z,83.01
2022-08-27T06:38:05.169Z,83.01
2022-08-27T06:39:05.309Z,83.11
2022-08-27T06:40:05.214Z,82.87
2022-08-27T06:41:05.180Z,82.57
2022-08-27T06:42:05.119Z,82.57
2022-08-27T06:43:05.110Z,82.57
2022-08-27T06:44:05.121Z,82.03
2022-08-27T06:45:05.141Z,82.03
2022-08-27T06:46:05.115Z,81.83
2022-08-27T06:47:05.071Z,81.63
2022-08-27T06:48:05.081Z,81.73
2022-08-27T06:49:05.042Z,81.67
2022-08-27T06:50:05.030Z,81.77
2022-08-27T06:51:05.043Z,81.73
2022-08-27T06:52:05.037Z,81.43
2022-08-27T06:53:04.994Z,81.23
2022-08-27T06:54:05.009Z,81.33
2022-08-27T06:55:04.963Z,81.33
2022-08-27T06:56:04.997Z,81.33
2022-08-27T06:57:04.967Z,81.03
2022-08-27T06:58:04.942Z,80.79
2022-08-27T06:59:04.952Z,80.79
2022-08-27T07:00:05.914Z,80.39
2022-08-27T07:01:04.947Z,80.29
2022-08-27T07:02:04.918Z,80.29
2022-08-27T07:03:04.875Z,80.19
2022-08-27T07:04:05.635Z,80.39
2022-08-27T07:05:04.866Z,80.29
2022-08-27T07:06:04.850Z,80.29
2022-08-27T07:07:04.835Z,80.19
2022-08-27T07:08:04.877Z,80.29
2022-08-27T07:09:04.820Z,80.49
2022-08-27T07:10:04.796Z,80.19
2022-08-27T07:11:04.776Z,79.79
2022-08-27T07:12:04.792Z,79.49
2022-08-27T07:13:04.759Z,79.69
2022-08-27T07:14:04.777Z,79.46
2022-08-27T07:15:04.793Z,79.46
2022-08-27T07:16:04.794Z,79.35
2022-08-27T07:17:04.757Z,78.96
2022-08-27T07:18:04.877Z,78.96
2022-08-27T07:19:04.689Z,79.05
2022-08-27T07:20:04.721Z,79.05
2022-08-27T07:21:04.671Z,79.05
2022-08-27T07:22:04.670Z,78.85
2022-08-27T07:23:06.488Z,78.85
2022-08-27T07:24:04.738Z,78.75
2022-08-27T07:25:04.633Z,78.72
2022-08-27T07:26:04.901Z,78.42
2022-08-27T07:27:04.597Z,78.12
2022-08-27T07:28:04.667Z,77.98
2022-08-27T07:29:04.611Z,77.38
2022-08-27T07:30:04.586Z,77.18
2022-08-27T07:31:04.614Z,77.18
2022-08-27T07:32:04.542Z,76.84
2022-08-27T07:33:04.545Z,77.04
2022-08-27T07:34:04.518Z,76.95
2022-08-27T07:35:04.498Z,76.34
2022-08-27T07:36:04.484Z,76.11
2022-08-27T07:37:04.578Z,76.15
2022-08-27T07:38:04.508Z,76.15
2022-08-27T07:39:04.478Z,76.48
2022-08-27T07:40:04.508Z,77.08
2022-08-27T07:41:04.431Z,77.18
2022-08-27T07:42:04.458Z,77.28
2022-08-27T07:43:04.409Z,77.08
2022-08-27T07:44:05.337Z,76.88
2022-08-27T07:45:04.423Z,77.08
2022-08-27T07:46:04.431Z,77.18
2022-08-27T07:47:04.378Z,76.78
2022-08-27T07:48:04.424Z,77.38
2022-08-27T07:49:04.340Z,76.54
2022-08-27T07:50:04.325Z,76.25
2022-08-27T07:51:04.309Z,76.15
2022-08-27T07:52:04.300Z,76.25
2022-08-27T07:53:04.362Z,76.25
2022-08-27T07:54:04.308Z,76.65
2022-08-27T07:55:04.285Z,76.15
2022-08-27T07:56:04.262Z,76.15
2022-08-27T07:57:04.270Z,76.25
2022-08-27T07:58:04.288Z,76.25
2022-08-27T07:59:04.234Z,76.25
2022-08-27T08:00:04.250Z,75.65
2022-08-27T08:01:04.274Z,75.74
2022-08-27T08:02:04.250Z,75.41
2022-08-27T08:03:04.192Z,75.11
2022-08-27T08:04:04.162Z,75.45
2022-08-27T08:05:04.155Z,75.55
2022-08-27T08:06:04.178Z,75.51
2022-08-27T08:07:04.134Z,75.45
2022-08-27T08:08:04.201Z,75.55
2022-08-27T08:09:04.109Z,75.81
2022-08-27T08:10:04.086Z,75.61
2022-08-27T08:11:04.091Z,75.01
2022-08-27T08:12:04.085Z,75.11
2022-08-27T08:13:04.074Z,74.91
2022-08-27T08:14:04.055Z,74.71
2022-08-27T08:15:05.070Z,74.41
2022-08-27T08:16:06.237Z,74.41
2022-08-27T08:17:08.843Z,74.38
2022-08-27T08:18:05.144Z,73.98
2022-08-27T08:19:04.272Z,74.08
2022-08-27T08:20:20.010Z,73.88
2022-08-27T08:21:05.029Z,74.08
2022-08-27T08:22:05.974Z,73.65
2022-08-27T08:23:04.068Z,73.14
2022-08-27T08:24:05.001Z,73.55
2022-08-27T08:25:04.144Z,72.95
2022-08-27T08:26:03.934Z,73.25
2022-08-27T08:27:07.413Z,73.14
2022-08-27T08:28:04.065Z,73.68
2022-08-27T08:29:03.922Z,73.44
2022-08-27T08:30:03.935Z,73.55
2022-08-27T08:31:05.113Z,73.25
2022-08-27T08:32:03.850Z,73.25
2022-08-27T08:33:03.838Z,72.91
2022-08-27T08:34:03.841Z,72.22
2022-08-27T08:35:03.963Z,71.98
2022-08-27T08:36:03.999Z,71.81
2022-08-27T08:37:03.834Z,71.92
2022-08-27T08:38:03.963Z,72.41
2022-08-27T08:39:03.792Z,72.11
2022-08-27T08:40:04.029Z,71.92
2022-08-27T08:41:03.776Z,72.95
2022-08-27T08:42:03.869Z,72.85
2022-08-27T08:43:03.784Z,72.41
2022-08-27T08:44:05.714Z,72.22
2022-08-27T08:45:03.716Z,72.28
2022-08-27T08:46:03.767Z,71.88
2022-08-27T08:47:03.721Z,71.92
2022-08-27T08:48:03.842Z,72.11
2022-08-27T08:49:04.037Z,71.98
2022-08-27T08:50:03.744Z,71.98
2022-08-27T08:51:03.761Z,71.78
2022-08-27T08:52:03.642Z,71.42
2022-08-27T08:53:03.634Z,71.51
2022-08-27T08:54:03.885Z,71.62
2022-08-27T08:55:03.652Z,71.62
2022-08-27T08:56:03.591Z,71.85
2022-08-27T08:57:03.578Z,72.55
2022-08-27T08:58:03.592Z,72.41
2022-08-27T08:59:03.632Z,71.81
2022-08-27T09:00:03.730Z,72.02
2022-08-27T09:01:03.560Z,71.72
2022-08-27T09:02:03.541Z,71.09
2022-08-27T09:03:03.494Z,71.02
2022-08-27T09:04:03.508Z,71.32
2022-08-27T09:05:03.528Z,72.45
2022-08-27T09:06:03.519Z,72.02
2022-08-27T09:07:03.445Z,71.81
2022-08-27T09:08:28.586Z,71.81
2022-08-27T09:09:04.431Z,71.51
2022-08-27T09:10:03.421Z,71.62
2022-08-27T09:11:03.553Z,72.02
2022-08-27T09:12:03.432Z,71.62
2022-08-27T09:13:03.373Z,72.02
2022-08-27T09:14:03.362Z,71.39
2022-08-27T09:15:03.362Z,71.42
2022-08-27T09:16:03.335Z,71.81
2022-08-27T09:17:03.446Z,70.98
2022-08-27T09:18:04.390Z,71.09
2022-08-27T09:19:06.124Z,71.48
2022-08-27T09:20:03.294Z,70.79
2022-08-27T09:21:08.954Z,70.98
2022-08-27T09:22:04.315Z,70.89
2022-08-27T09:23:03.320Z,70.72
2022-08-27T09:24:03.282Z,71.62
2022-08-27T09:25:03.266Z,71.58
2022-08-27T09:26:03.240Z,70.89
2022-08-27T09:27:03.263Z,70.09
2022-08-27T09:28:03.218Z,70.39
2022-08-27T09:29:03.218Z,70.68
2022-08-27T09:30:03.192Z,70.39
2022-08-27T09:31:03.232Z,70.19
2022-08-27T09:32:03.237Z,70.19
2022-08-27T09:33:04.938Z,70.19
2022-08-27T09:34:03.154Z,70.89
2022-08-27T09:35:03.265Z,70.09
2022-08-27T09:36:03.110Z,70.79
2022-08-27T09:37:03.138Z,70.49
2022-08-27T09:38:03.115Z,69.99
2022-08-27T09:39:03.072Z,70.19
2022-08-27T09:40:03.966Z,70.98
2022-08-27T09:41:03.092Z,70.09
2022-08-27T09:42:03.042Z,69.79
2022-08-27T09:43:03.111Z,70.15
2022-08-27T09:44:03.053Z,69.66
2022-08-27T09:45:03.010Z,69.36
2022-08-27T09:46:03.112Z,69.36
2022-08-27T09:47:03.023Z,68.96
2022-08-27T09:48:03.032Z,69.26
2022-08-27T09:49:03.000Z,69.39
2022-08-27T09:50:06.867Z,69.56
2022-08-27T09:51:02.973Z,69.36
2022-08-27T09:52:02.936Z,69.76
2022-08-27T09:53:02.952Z,69.06
2022-08-27T09:54:02.933Z,69.56
2022-08-27T09:55:02.945Z,68.86
2022-08-27T09:56:02.949Z,69.56
2022-08-27T09:57:02.928Z,69.56
2022-08-27T09:58:02.932Z,68.66
2022-08-27T09:59:02.968Z,68.76
2022-08-27T10:00:02.866Z,68.83
2022-08-27T10:01:02.911Z,68.43
2022-08-27T10:02:02.829Z,68.93
2022-08-27T10:03:02.827Z,68.73
2022-08-27T10:04:02.903Z,68.50
2022-08-27T10:05:02.815Z,68.80
2022-08-27T10:06:02.987Z,68.00
2022-08-27T10:07:02.751Z,68.10
2022-08-27T10:08:02.766Z,68.13
2022-08-27T10:09:06.953Z,68.23
2022-08-27T10:10:02.731Z,68.50
2022-08-27T10:11:02.773Z,67.60
2022-08-27T10:12:03.069Z,67.47
2022-08-27T10:13:02.681Z,67.27
2022-08-27T10:14:04.714Z,67.37
2022-08-27T10:15:02.756Z,68.16
2022-08-27T10:16:02.655Z,67.57
2022-08-27T10:17:02.631Z,67.04
2022-08-27T10:18:02.623Z,67.14
2022-08-27T10:19:02.629Z,66.94
2022-08-27T10:20:02.591Z,67.87
2022-08-27T10:21:05.581Z,67.90
2022-08-27T10:22:02.632Z,68.23
2022-08-27T10:23:02.923Z,68.43
2022-08-27T10:24:06.812Z,68.93
2022-08-27T10:25:02.575Z,69.53
2022-08-27T10:26:02.593Z,69.23
2022-08-27T10:27:06.946Z,69.20
2022-08-27T10:28:02.562Z,68.30
2022-08-27T10:29:02.904Z,68.70
2022-08-27T10:30:02.497Z,68.30
2022-08-27T10:31:02.494Z,68.10
2022-08-27T10:32:02.528Z,68.00
2022-08-27T10:33:03.989Z,68.33
2022-08-27T10:34:02.442Z,68.30
2022-08-27T10:35:02.445Z,68.00
2022-08-27T10:36:02.418Z,67.90
2022-08-27T10:37:04.326Z,68.10
2022-08-27T10:38:03.470Z,68.10
2022-08-27T10:39:02.456Z,68.83
2022-08-27T10:40:02.385Z,68.73
2022-08-27T10:41:02.368Z,69.23
2022-08-27T10:42:02.352Z,68.50
2022-08-27T10:43:02.345Z,68.30
2022-08-27T10:44:02.368Z,68.20
2022-08-27T10:45:02.302Z,67.77
2022-08-27T10:46:02.557Z,67.77
2022-08-27T10:47:02.363Z,67.77
2022-08-27T10:48:02.278Z,68.27
2022-08-27T10:49:02.279Z,67.47
2022-08-27T10:50:02.294Z,67.27
2022-08-27T10:51:02.241Z,66.88
2022-08-27T10:52:05.285Z,67.04
2022-08-27T10:53:03.222Z,66.85
2022-08-27T10:54:02.224Z,66.55
2022-08-27T10:55:02.219Z,66.25
2022-08-27T10:56:02.384Z,66.35
2022-08-27T10:57:26.184Z,66.11
2022-08-27T10:58:03.156Z,66.35
2022-08-27T10:59:02.154Z,65.95
2022-08-27T11:00:02.311Z,65.82
2022-08-27T11:01:02.208Z,65.65
2022-08-27T11:02:02.205Z,66.67
2022-08-27T11:03:02.298Z,67.04
2022-08-27T11:04:02.155Z,66.55
2022-08-27T11:05:02.085Z,65.62
2022-08-27T11:06:02.137Z,65.62
2022-08-27T11:07:02.058Z,65.52
2022-08-27T11:08:02.076Z,64.79
2022-08-27T11:09:07.494Z,65.19
2022-08-27T11:10:03.037Z,65.39
2022-08-27T11:11:26.021Z,64.67
2022-08-27T11:12:15.060Z,64.34
2022-08-27T11:13:03.076Z,64.07
2022-08-27T11:14:02.172Z,64.23
2022-08-27T11:15:02.029Z,63.34
2022-08-27T11:16:02.008Z,63.94
2022-08-27T11:17:02.313Z,63.77
2022-08-27T11:18:01.992Z,64.07
2022-08-27T11:19:01.960Z,64.53
2022-08-27T11:20:02.536Z,64.43
2022-08-27T11:21:01.918Z,62.62
2022-08-27T11:22:01.943Z,62.95
2022-08-27T11:23:01.907Z,62.95
2022-08-27T11:24:01.891Z,62.88
2022-08-27T11:25:01.881Z,63.08
2022-08-27T11:26:02.357Z,64.10
2022-08-27T11:27:01.844Z,64.33
2022-08-27T11:28:01.826Z,64.83
2022-08-27T11:29:01.969Z,65.29
2022-08-27T11:30:01.832Z,64.79
2022-08-27T11:31:01.806Z,64.79
2022-08-27T11:32:01.862Z,64.07
2022-08-27T11:33:01.766Z,63.57
2022-08-27T11:34:01.766Z,63.28
2022-08-27T11:35:01.801Z,63.34
2022-08-27T11:36:01.745Z,62.48
2022-08-27T11:37:01.718Z,63.18
2022-08-27T11:38:01.695Z,63.28
2022-08-27T11:39:01.706Z,62.85
2022-08-27T11:40:01.822Z,63.18
2022-08-27T11:41:01.686Z,63.60
2022-08-27T11:42:01.657Z,64.33
2022-08-27T11:43:01.682Z,65.65
2022-08-27T11:44:01.627Z,66.11
2022-08-27T11:45:01.638Z,65.75
2022-08-27T11:46:01.639Z,66.05
2022-08-27T11:47:01.686Z,65.32
2022-08-27T11:48:01.580Z,65.72
2022-08-27T11:49:01.638Z,65.82
2022-08-27T11:50:01.600Z,64.99
2022-08-27T11:51:01.584Z,64.59
2022-08-27T11:52:01.566Z,64.07
2022-08-27T11:53:01.578Z,63.97
2022-08-27T11:54:01.544Z,63.57
2022-08-27T11:55:01.512Z,63.87
2022-08-27T11:56:01.534Z,63.84
2022-08-27T11:57:01.510Z,63.31
2022-08-27T11:58:01.491Z,63.12
2022-08-27T11:59:01.529Z,63.54
2022-08-27T12:00:01.467Z,63.97
2022-08-27T12:01:04.696Z,63.84
2022-08-27T12:02:01.434Z,63.87
2022-08-27T12:03:01.495Z,64.37
2022-08-27T12:04:01.563Z,64.30
2022-08-27T12:05:01.416Z,64.59
2022-08-27T12:06:01.365Z,64.56
2022-08-27T12:07:01.388Z,64.47
2022-08-27T12:08:01.356Z,64.40
2022-08-27T12:09:01.361Z,64.99
2022-08-27T12:10:01.330Z,64.50
2022-08-27T12:11:01.320Z,64.50
2022-08-27T12:12:01.317Z,64.30
2022-08-27T12:13:01.308Z,64.07
2022-08-27T12:14:01.297Z,64.07
2022-08-27T12:15:01.287Z,63.74
2022-08-27T12:16:01.322Z,63.67
2022-08-27T12:17:01.264Z,63.77
2022-08-27T12:18:01.238Z,63.34
2022-08-27T12:19:01.222Z,63.48
2022-08-27T12:20:01.264Z,64.07
2022-08-27T12:21:01.219Z,63.87
2022-08-27T12:22:01.186Z,63.97
2022-08-27T12:23:01.168Z,63.37
2022-08-27T12:24:01.171Z,63.21
2022-08-27T12:25:01.191Z,64.07
2022-08-27T12:26:01.172Z,63.37
2022-08-27T12:27:01.173Z,63.51
2022-08-27T12:28:01.161Z,63.57
2022-08-27T12:29:01.103Z,63.48
2022-08-27T12:30:01.102Z,63.37
2022-08-27T12:31:01.095Z,63.93
2022-08-27T12:32:01.143Z,64.03
2022-08-27T12:33:01.062Z,63.90
2022-08-27T12:34:01.063Z,63.70
2022-08-27T12:35:01.042Z,64.07
2022-08-27T12:36:01.035Z,63.48
2022-08-27T12:37:01.034Z,62.68
2022-08-27T12:38:01.045Z,62.48
2022-08-27T12:39:00.985Z,62.45
2022-08-27T12:40:01.013Z,63.24
2022-08-27T12:41:00.977Z,62.26
2022-08-27T12:42:00.965Z,62.32
2022-08-27T12:43:01.120Z,61.56
2022-08-27T12:44:00.991Z,61.99
2022-08-27T12:45:00.918Z,61.99
2022-08-27T12:46:00.910Z,61.66
2022-08-27T12:47:01.032Z,61.46
2022-08-27T12:48:00.960Z,61.89
2022-08-27T12:49:10.022Z,62.29
2022-08-27T12:50:01.868Z,62.29
2022-08-27T12:51:00.857Z,62.48
2022-08-27T12:52:00.862Z,62.18